sensor_id;sensor_type;location;lat;lon;timestamp;P1;durP1;ratioP1;P2;durP2;ratioP2
33266;SDS011;19638;49.080;11.896;2023-06-26T00:03:27;9.50;;;5.80;;
33266;SDS011;19638;49.080;11.896;2023-06-26T00:07:30;7.28;;;6.18;;
33266;SDS011;19638;49.080;11.896;2023-06-26T00:11:37;11.82;;;7.15;;
33266;SDS011;19638;49.080;11.896;2023-06-26T00:15:40;9.13;;;6.50;;
33266;SDS011;19638;49.080;11.896;2023-06-26T00:19:45;11.38;;;6.82;;
33266;SDS011;19638;49.080;11.896;2023-06-26T00:23:51;8.85;;;6.75;;
33266;SDS011;19638;49.080;11.896;2023-06-26T00:27:54;10.57;;;6.78;;
33266;SDS011;19638;49.080;11.896;2023-06-26T00:31:57;10.40;;;6.75;;
33266;SDS011;19638;49.080;11.896;2023-06-26T00:36:02;10.57;;;7.38;;
33266;SDS011;19638;49.080;11.896;2023-06-26T00:40:07;14.73;;;6.32;;
33266;SDS011;19638;49.080;11.896;2023-06-26T00:44:11;9.70;;;7.38;;
33266;SDS011;19638;49.080;11.896;2023-06-26T00:48:14;9.38;;;6.55;;
33266;SDS011;19638;49.080;11.896;2023-06-26T00:52:22;12.23;;;7.10;;
33266;SDS011;19638;49.080;11.896;2023-06-26T00:56:30;10.40;;;6.70;;
33266;SDS011;19638;49.080;11.896;2023-06-26T01:00:36;10.98;;;7.10;;
33266;SDS011;19638;49.080;11.896;2023-06-26T01:04:40;11.98;;;7.13;;
33266;SDS011;19638;49.080;11.896;2023-06-26T01:08:49;11.25;;;7.15;;
33266;SDS011;19638;49.080;11.896;2023-06-26T01:12:54;8.82;;;6.38;;
33266;SDS011;19638;49.080;11.896;2023-06-26T01:16:57;9.63;;;7.15;;
33266;SDS011;19638;49.080;11.896;2023-06-26T01:21:02;11.10;;;7.10;;
33266;SDS011;19638;49.080;11.896;2023-06-26T01:25:11;8.70;;;6.85;;
33266;SDS011;19638;49.080;11.896;2023-06-26T01:29:22;9.57;;;6.78;;
33266;SDS011;19638;49.080;11.896;2023-06-26T01:33:27;7.78;;;6.22;;
33266;SDS011;19638;49.080;11.896;2023-06-26T01:37:32;14.20;;;6.82;;
33266;SDS011;19638;49.080;11.896;2023-06-26T01:41:35;8.98;;;6.85;;
33266;SDS011;19638;49.080;11.896;2023-06-26T01:45:40;8.77;;;6.40;;
33266;SDS011;19638;49.080;11.896;2023-06-26T01:49:52;9.70;;;7.05;;
33266;SDS011;19638;49.080;11.896;2023-06-26T01:54:02;10.75;;;7.05;;
33266;SDS011;19638;49.080;11.896;2023-06-26T01:58:12;9.43;;;6.75;;
33266;SDS011;19638;49.080;11.896;2023-06-26T02:02:20;10.45;;;7.00;;
33266;SDS011;19638;49.080;11.896;2023-06-26T02:06:25;8.88;;;6.63;;
33266;SDS011;19638;49.080;11.896;2023-06-26T02:10:29;13.02;;;7.72;;
33266;SDS011;19638;49.080;11.896;2023-06-26T02:14:35;14.30;;;7.63;;
33266;SDS011;19638;49.080;11.896;2023-06-26T02:18:43;9.43;;;7.28;;
33266;SDS011;19638;49.080;11.896;2023-06-26T02:22:46;10.77;;;6.85;;
33266;SDS011;19638;49.080;11.896;2023-06-26T02:26:50;10.73;;;7.40;;
33266;SDS011;19638;49.080;11.896;2023-06-26T02:30:54;10.50;;;7.18;;
33266;SDS011;19638;49.080;11.896;2023-06-26T02:34:59;12.77;;;8.25;;
33266;SDS011;19638;49.080;11.896;2023-06-26T02:39:02;12.98;;;8.48;;
33266;SDS011;19638;49.080;11.896;2023-06-26T02:43:06;13.65;;;7.50;;
33266;SDS011;19638;49.080;11.896;2023-06-26T02:47:12;11.60;;;6.82;;
33266;SDS011;19638;49.080;11.896;2023-06-26T02:51:20;12.27;;;7.32;;
33266;SDS011;19638;49.080;11.896;2023-06-26T02:55:27;13.13;;;7.97;;
33266;SDS011;19638;49.080;11.896;2023-06-26T02:59:30;12.05;;;7.78;;
33266;SDS011;19638;49.080;11.896;2023-06-26T03:03:33;10.35;;;7.47;;
33266;SDS011;19638;49.080;11.896;2023-06-26T03:07:43;11.63;;;8.15;;
33266;SDS011;19638;49.080;11.896;2023-06-26T03:11:48;11.02;;;8.07;;
33266;SDS011;19638;49.080;11.896;2023-06-26T03:15:51;10.90;;;7.38;;
33266;SDS011;19638;49.080;11.896;2023-06-26T03:19:58;12.10;;;7.88;;
33266;SDS011;19638;49.080;11.896;2023-06-26T03:24:05;11.95;;;8.10;;
33266;SDS011;19638;49.080;11.896;2023-06-26T03:28:11;16.73;;;8.55;;
33266;SDS011;19638;49.080;11.896;2023-06-26T03:32:14;9.45;;;7.45;;
33266;SDS011;19638;49.080;11.896;2023-06-26T03:36:18;12.23;;;7.50;;
33266;SDS011;19638;49.080;11.896;2023-06-26T03:40:22;11.27;;;7.97;;
33266;SDS011;19638;49.080;11.896;2023-06-26T03:44:25;11.90;;;8.15;;
33266;SDS011;19638;49.080;11.896;2023-06-26T03:48:29;12.15;;;8.48;;
33266;SDS011;19638;49.080;11.896;2023-06-26T03:52:35;13.52;;;8.05;;
33266;SDS011;19638;49.080;11.896;2023-06-26T03:56:44;11.05;;;7.85;;
33266;SDS011;19638;49.080;11.896;2023-06-26T04:00:48;15.07;;;7.68;;
33266;SDS011;19638;49.080;11.896;2023-06-26T04:04:51;11.40;;;6.70;;
33266;SDS011;19638;49.080;11.896;2023-06-26T04:08:55;11.77;;;6.68;;
33266;SDS011;19638;49.080;11.896;2023-06-26T04:12:59;13.05;;;8.23;;
33266;SDS011;19638;49.080;11.896;2023-06-26T04:21:12;11.38;;;7.53;;
33266;SDS011;19638;49.080;11.896;2023-06-26T04:25:17;11.40;;;7.07;;
33266;SDS011;19638;49.080;11.896;2023-06-26T04:29:23;8.77;;;6.72;;
33266;SDS011;19638;49.080;11.896;2023-06-26T04:33:28;9.10;;;6.90;;
33266;SDS011;19638;49.080;11.896;2023-06-26T04:37:31;10.27;;;6.95;;
33266;SDS011;19638;49.080;11.896;2023-06-26T04:41:36;13.82;;;6.88;;
33266;SDS011;19638;49.080;11.896;2023-06-26T04:45:44;6.93;;;6.18;;
33266;SDS011;19638;49.080;11.896;2023-06-26T04:49:56;8.68;;;6.60;;
33266;SDS011;19638;49.080;11.896;2023-06-26T04:53:59;8.75;;;6.18;;
33266;SDS011;19638;49.080;11.896;2023-06-26T04:58:05;11.80;;;6.90;;
33266;SDS011;19638;49.080;11.896;2023-06-26T05:02:10;11.85;;;7.75;;
33266;SDS011;19638;49.080;11.896;2023-06-26T05:06:16;10.15;;;6.68;;
33266;SDS011;19638;49.080;11.896;2023-06-26T05:10:19;10.25;;;7.22;;
33266;SDS011;19638;49.080;11.896;2023-06-26T05:14:25;15.30;;;7.57;;
33266;SDS011;19638;49.080;11.896;2023-06-26T05:18:34;10.32;;;7.00;;
33266;SDS011;19638;49.080;11.896;2023-06-26T05:22:38;12.13;;;7.60;;
33266;SDS011;19638;49.080;11.896;2023-06-26T05:26:42;10.68;;;7.97;;
33266;SDS011;19638;49.080;11.896;2023-06-26T05:30:48;11.70;;;8.80;;
33266;SDS011;19638;49.080;11.896;2023-06-26T05:35:00;14.07;;;8.15;;
33266;SDS011;19638;49.080;11.896;2023-06-26T05:39:12;12.88;;;8.68;;
33266;SDS011;19638;49.080;11.896;2023-06-26T05:43:16;11.77;;;8.88;;
33266;SDS011;19638;49.080;11.896;2023-06-26T05:47:28;14.40;;;8.63;;
33266;SDS011;19638;49.080;11.896;2023-06-26T05:51:33;10.02;;;7.97;;
33266;SDS011;19638;49.080;11.896;2023-06-26T05:55:36;14.10;;;8.18;;
33266;SDS011;19638;49.080;11.896;2023-06-26T05:59:50;12.57;;;7.65;;
33266;SDS011;19638;49.080;11.896;2023-06-26T06:03:56;9.90;;;7.93;;
33266;SDS011;19638;49.080;11.896;2023-06-26T06:08:03;10.20;;;8.13;;
33266;SDS011;19638;49.080;11.896;2023-06-26T06:12:07;10.75;;;7.60;;
33266;SDS011;19638;49.080;11.896;2023-06-26T06:16:11;14.98;;;8.48;;
33266;SDS011;19638;49.080;11.896;2023-06-26T06:20:16;8.45;;;7.22;;
33266;SDS011;19638;49.080;11.896;2023-06-26T06:24:23;8.95;;;7.22;;
33266;SDS011;19638;49.080;11.896;2023-06-26T06:28:28;16.58;;;7.20;;
33266;SDS011;19638;49.080;11.896;2023-06-26T06:32:35;10.52;;;7.70;;
33266;SDS011;19638;49.080;11.896;2023-06-26T06:36:43;9.50;;;6.53;;
33266;SDS011;19638;49.080;11.896;2023-06-26T06:40:48;9.85;;;7.15;;
33266;SDS011;19638;49.080;11.896;2023-06-26T06:44:52;8.60;;;6.90;;
33266;SDS011;19638;49.080;11.896;2023-06-26T06:48:57;8.32;;;7.03;;
33266;SDS011;19638;49.080;11.896;2023-06-26T06:53:03;7.00;;;6.30;;
33266;SDS011;19638;49.080;11.896;2023-06-26T06:57:09;7.18;;;6.47;;
33266;SDS011;19638;49.080;11.896;2023-06-26T07:01:12;9.40;;;6.55;;
33266;SDS011;19638;49.080;11.896;2023-06-26T07:05:16;9.07;;;6.13;;
33266;SDS011;19638;49.080;11.896;2023-06-26T07:09:19;8.88;;;6.32;;
33266;SDS011;19638;49.080;11.896;2023-06-26T07:13:23;6.57;;;5.75;;
33266;SDS011;19638;49.080;11.896;2023-06-26T07:17:27;9.80;;;6.50;;
33266;SDS011;19638;49.080;11.896;2023-06-26T07:21:30;6.80;;;6.10;;
33266;SDS011;19638;49.080;11.896;2023-06-26T07:25:33;7.68;;;6.22;;
33266;SDS011;19638;49.080;11.896;2023-06-26T07:29:43;6.70;;;5.68;;
33266;SDS011;19638;49.080;11.896;2023-06-26T07:33:47;6.65;;;5.97;;
33266;SDS011;19638;49.080;11.896;2023-06-26T07:37:54;6.40;;;5.80;;
33266;SDS011;19638;49.080;11.896;2023-06-26T07:41:57;6.93;;;6.22;;
33266;SDS011;19638;49.080;11.896;2023-06-26T07:46:02;7.97;;;6.05;;
33266;SDS011;19638;49.080;11.896;2023-06-26T07:50:05;8.13;;;6.00;;
33266;SDS011;19638;49.080;11.896;2023-06-26T07:54:08;8.98;;;5.65;;
33266;SDS011;19638;49.080;11.896;2023-06-26T07:58:14;6.60;;;5.85;;
33266;SDS011;19638;49.080;11.896;2023-06-26T08:02:22;6.28;;;5.28;;
33266;SDS011;19638;49.080;11.896;2023-06-26T08:06:26;6.30;;;5.70;;
33266;SDS011;19638;49.080;11.896;2023-06-26T08:10:29;6.40;;;5.40;;
33266;SDS011;19638;49.080;11.896;2023-06-26T08:14:38;6.20;;;5.60;;
33266;SDS011;19638;49.080;11.896;2023-06-26T08:18:43;9.85;;;5.03;;
33266;SDS011;19638;49.080;11.896;2023-06-26T08:22:47;5.18;;;4.60;;
33266;SDS011;19638;49.080;11.896;2023-06-26T08:26:56;5.93;;;5.32;;
33266;SDS011;19638;49.080;11.896;2023-06-26T08:31:02;5.82;;;5.20;;
33266;SDS011;19638;49.080;11.896;2023-06-26T08:35:11;8.50;;;5.20;;
33266;SDS011;19638;49.080;11.896;2023-06-26T08:39:14;6.15;;;5.50;;
33266;SDS011;19638;49.080;11.896;2023-06-26T08:43:20;5.68;;;5.18;;
33266;SDS011;19638;49.080;11.896;2023-06-26T08:47:23;8.38;;;5.70;;
33266;SDS011;19638;49.080;11.896;2023-06-26T08:51:30;5.75;;;5.18;;
33266;SDS011;19638;49.080;11.896;2023-06-26T08:55:36;7.05;;;5.80;;
33266;SDS011;19638;49.080;11.896;2023-06-26T08:59:46;6.05;;;5.45;;
33266;SDS011;19638;49.080;11.896;2023-06-26T09:03:50;6.82;;;5.50;;
33266;SDS011;19638;49.080;11.896;2023-06-26T09:07:57;5.95;;;5.43;;
33266;SDS011;19638;49.080;11.896;2023-06-26T09:12:01;7.57;;;6.22;;
33266;SDS011;19638;49.080;11.896;2023-06-26T09:16:05;5.78;;;5.22;;
33266;SDS011;19638;49.080;11.896;2023-06-26T09:20:10;7.63;;;5.45;;
33266;SDS011;19638;49.080;11.896;2023-06-26T09:24:21;6.35;;;5.50;;
33266;SDS011;19638;49.080;11.896;2023-06-26T09:28:26;7.25;;;5.30;;
33266;SDS011;19638;49.080;11.896;2023-06-26T09:32:30;8.55;;;6.35;;
33266;SDS011;19638;49.080;11.896;2023-06-26T09:36:37;5.90;;;5.30;;
33266;SDS011;19638;49.080;11.896;2023-06-26T09:40:45;6.60;;;5.43;;
33266;SDS011;19638;49.080;11.896;2023-06-26T09:44:53;6.70;;;5.68;;
33266;SDS011;19638;49.080;11.896;2023-06-26T09:49:00;7.50;;;5.78;;
33266;SDS011;19638;49.080;11.896;2023-06-26T09:53:10;8.02;;;5.82;;
33266;SDS011;19638;49.080;11.896;2023-06-26T09:57:17;6.00;;;5.45;;
33266;SDS011;19638;49.080;11.896;2023-06-26T10:01:21;6.38;;;5.75;;
33266;SDS011;19638;49.080;11.896;2023-06-26T10:05:25;7.50;;;5.85;;
33266;SDS011;19638;49.080;11.896;2023-06-26T10:09:32;7.10;;;6.00;;
33266;SDS011;19638;49.080;11.896;2023-06-26T10:13:42;6.38;;;5.63;;
33266;SDS011;19638;49.080;11.896;2023-06-26T10:17:49;7.18;;;6.10;;
33266;SDS011;19638;49.080;11.896;2023-06-26T10:21:55;8.02;;;5.72;;
33266;SDS011;19638;49.080;11.896;2023-06-26T10:26:00;6.32;;;5.72;;
33266;SDS011;19638;49.080;11.896;2023-06-26T10:30:11;6.82;;;6.15;;
33266;SDS011;19638;49.080;11.896;2023-06-26T10:34:17;9.25;;;6.63;;
33266;SDS011;19638;49.080;11.896;2023-06-26T10:38:23;7.40;;;6.18;;
33266;SDS011;19638;49.080;11.896;2023-06-26T10:43:04;7.10;;;6.40;;
33266;SDS011;19638;49.080;11.896;2023-06-26T10:47:28;6.03;;;5.45;;
33266;SDS011;19638;49.080;11.896;2023-06-26T10:51:34;6.45;;;5.68;;
33266;SDS011;19638;49.080;11.896;2023-06-26T10:55:39;6.97;;;5.90;;
33266;SDS011;19638;49.080;11.896;2023-06-26T10:59:44;8.10;;;5.63;;
33266;SDS011;19638;49.080;11.896;2023-06-26T11:03:49;6.68;;;5.97;;
33266;SDS011;19638;49.080;11.896;2023-06-26T11:08:07;7.43;;;6.07;;
33266;SDS011;19638;49.080;11.896;2023-06-26T11:12:13;6.63;;;5.68;;
33266;SDS011;19638;49.080;11.896;2023-06-26T11:16:19;6.82;;;5.80;;
33266;SDS011;19638;49.080;11.896;2023-06-26T11:20:24;9.15;;;6.05;;
33266;SDS011;19638;49.080;11.896;2023-06-26T11:24:32;8.52;;;6.75;;
33266;SDS011;19638;49.080;11.896;2023-06-26T11:28:36;6.97;;;6.28;;
33266;SDS011;19638;49.080;11.896;2023-06-26T11:32:39;6.53;;;5.88;;
33266;SDS011;19638;49.080;11.896;2023-06-26T11:36:45;6.22;;;5.57;;
33266;SDS011;19638;49.080;11.896;2023-06-26T11:40:50;6.18;;;4.93;;
33266;SDS011;19638;49.080;11.896;2023-06-26T11:44:55;5.05;;;4.63;;
33266;SDS011;19638;49.080;11.896;2023-06-26T11:49:05;5.03;;;4.53;;
33266;SDS011;19638;49.080;11.896;2023-06-26T11:53:14;6.70;;;5.13;;
33266;SDS011;19638;49.080;11.896;2023-06-26T11:57:20;5.22;;;4.72;;
33266;SDS011;19638;49.080;11.896;2023-06-26T12:01:26;5.80;;;5.30;;
33266;SDS011;19638;49.080;11.896;2023-06-26T12:05:32;7.05;;;5.05;;
33266;SDS011;19638;49.080;11.896;2023-06-26T12:09:41;5.88;;;5.32;;
33266;SDS011;19638;49.080;11.896;2023-06-26T12:13:47;5.93;;;5.32;;
33266;SDS011;19638;49.080;11.896;2023-06-26T12:17:50;5.35;;;4.60;;
33266;SDS011;19638;49.080;11.896;2023-06-26T12:21:55;7.07;;;5.60;;
33266;SDS011;19638;49.080;11.896;2023-06-26T12:26:15;6.90;;;5.40;;
33266;SDS011;19638;49.080;11.896;2023-06-26T12:30:20;6.25;;;5.20;;
33266;SDS011;19638;49.080;11.896;2023-06-26T12:34:27;7.50;;;5.28;;
33266;SDS011;19638;49.080;11.896;2023-06-26T12:38:33;5.60;;;4.85;;
33266;SDS011;19638;49.080;11.896;2023-06-26T12:42:38;5.72;;;5.00;;
33266;SDS011;19638;49.080;11.896;2023-06-26T12:46:43;5.72;;;5.13;;
33266;SDS011;19638;49.080;11.896;2023-06-26T12:50:48;5.03;;;4.53;;
33266;SDS011;19638;49.080;11.896;2023-06-26T12:54:53;5.53;;;4.38;;
33266;SDS011;19638;49.080;11.896;2023-06-26T12:58:59;4.80;;;4.40;;
33266;SDS011;19638;49.080;11.896;2023-06-26T13:03:05;4.75;;;4.35;;
33266;SDS011;19638;49.080;11.896;2023-06-26T13:07:14;6.10;;;4.60;;
33266;SDS011;19638;49.080;11.896;2023-06-26T13:11:17;4.82;;;4.43;;
33266;SDS011;19638;49.080;11.896;2023-06-26T13:15:22;5.88;;;4.55;;
33266;SDS011;19638;49.080;11.896;2023-06-26T13:19:27;5.65;;;4.50;;
33266;SDS011;19638;49.080;11.896;2023-06-26T13:23:31;7.63;;;4.75;;
33266;SDS011;19638;49.080;11.896;2023-06-26T13:27:38;4.88;;;4.47;;
33266;SDS011;19638;49.080;11.896;2023-06-26T13:31:42;5.10;;;4.47;;
33266;SDS011;19638;49.080;11.896;2023-06-26T13:35:47;4.10;;;3.80;;
33266;SDS011;19638;49.080;11.896;2023-06-26T13:39:50;5.60;;;4.40;;
33266;SDS011;19638;49.080;11.896;2023-06-26T13:43:53;6.28;;;4.45;;
33266;SDS011;19638;49.080;11.896;2023-06-26T13:48:10;5.35;;;4.50;;
33266;SDS011;19638;49.080;11.896;2023-06-26T13:52:26;4.88;;;4.40;;
33266;SDS011;19638;49.080;11.896;2023-06-26T13:56:29;4.82;;;4.22;;
33266;SDS011;19638;49.080;11.896;2023-06-26T14:00:33;4.43;;;4.05;;
33266;SDS011;19638;49.080;11.896;2023-06-26T14:04:39;4.60;;;4.20;;
33266;SDS011;19638;49.080;11.896;2023-06-26T14:08:42;4.65;;;4.25;;
33266;SDS011;19638;49.080;11.896;2023-06-26T14:12:45;5.60;;;4.57;;
33266;SDS011;19638;49.080;11.896;2023-06-26T14:16:53;4.95;;;4.55;;
33266;SDS011;19638;49.080;11.896;2023-06-26T14:20:58;5.40;;;4.63;;
33266;SDS011;19638;49.080;11.896;2023-06-26T14:25:01;6.18;;;4.20;;
33266;SDS011;19638;49.080;11.896;2023-06-26T14:29:04;6.03;;;4.55;;
33266;SDS011;19638;49.080;11.896;2023-06-26T14:33:09;5.03;;;4.57;;
33266;SDS011;19638;49.080;11.896;2023-06-26T14:37:14;5.82;;;4.20;;
33266;SDS011;19638;49.080;11.896;2023-06-26T14:41:20;4.60;;;4.20;;
33266;SDS011;19638;49.080;11.896;2023-06-26T14:45:24;4.45;;;4.05;;
33266;SDS011;19638;49.080;11.896;2023-06-26T14:49:27;5.07;;;4.63;;
33266;SDS011;19638;49.080;11.896;2023-06-26T14:53:32;4.85;;;4.35;;
33266;SDS011;19638;49.080;11.896;2023-06-26T14:57:35;6.05;;;4.60;;
33266;SDS011;19638;49.080;11.896;2023-06-26T15:01:38;5.50;;;4.45;;
33266;SDS011;19638;49.080;11.896;2023-06-26T15:05:42;4.97;;;4.57;;
33266;SDS011;19638;49.080;11.896;2023-06-26T15:09:46;7.00;;;4.72;;
33266;SDS011;19638;49.080;11.896;2023-06-26T15:13:49;5.32;;;4.82;;
33266;SDS011;19638;49.080;11.896;2023-06-26T15:17:53;6.45;;;5.13;;
33266;SDS011;19638;49.080;11.896;2023-06-26T15:22:02;6.82;;;5.13;;
33266;SDS011;19638;49.080;11.896;2023-06-26T15:26:09;6.55;;;5.55;;
33266;SDS011;19638;49.080;11.896;2023-06-26T15:30:14;5.78;;;4.88;;
33266;SDS011;19638;49.080;11.896;2023-06-26T15:34:17;7.68;;;5.28;;
33266;SDS011;19638;49.080;11.896;2023-06-26T15:38:22;6.10;;;5.18;;
33266;SDS011;19638;49.080;11.896;2023-06-26T15:42:27;5.10;;;4.70;;
33266;SDS011;19638;49.080;11.896;2023-06-26T15:46:32;8.18;;;5.32;;
33266;SDS011;19638;49.080;11.896;2023-06-26T15:50:39;10.80;;;5.38;;
33266;SDS011;19638;49.080;11.896;2023-06-26T15:54:42;5.60;;;5.10;;
33266;SDS011;19638;49.080;11.896;2023-06-26T15:58:49;9.05;;;5.85;;
33266;SDS011;19638;49.080;11.896;2023-06-26T16:02:52;5.40;;;4.90;;
33266;SDS011;19638;49.080;11.896;2023-06-26T16:06:56;6.10;;;5.50;;
33266;SDS011;19638;49.080;11.896;2023-06-26T16:11:04;6.07;;;5.47;;
33266;SDS011;19638;49.080;11.896;2023-06-26T16:15:10;6.18;;;5.57;;
33266;SDS011;19638;49.080;11.896;2023-06-26T16:19:21;6.75;;;5.47;;
33266;SDS011;19638;49.080;11.896;2023-06-26T16:23:33;6.55;;;5.57;;
33266;SDS011;19638;49.080;11.896;2023-06-26T16:27:36;8.10;;;6.30;;
33266;SDS011;19638;49.080;11.896;2023-06-26T16:31:41;6.93;;;5.85;;
33266;SDS011;19638;49.080;11.896;2023-06-26T16:35:47;7.47;;;6.05;;
33266;SDS011;19638;49.080;11.896;2023-06-26T16:39:50;8.27;;;5.95;;
33266;SDS011;19638;49.080;11.896;2023-06-26T16:43:53;7.38;;;6.03;;
33266;SDS011;19638;49.080;11.896;2023-06-26T16:47:58;7.50;;;6.65;;
33266;SDS011;19638;49.080;11.896;2023-06-26T16:52:01;9.70;;;6.28;;
33266;SDS011;19638;49.080;11.896;2023-06-26T16:56:07;10.18;;;6.22;;
33266;SDS011;19638;49.080;11.896;2023-06-26T17:00:11;14.27;;;6.57;;
33266;SDS011;19638;49.080;11.896;2023-06-26T17:04:19;11.68;;;6.70;;
33266;SDS011;19638;49.080;11.896;2023-06-26T17:08:22;9.88;;;6.47;;
33266;SDS011;19638;49.080;11.896;2023-06-26T17:12:27;7.80;;;6.53;;
33266;SDS011;19638;49.080;11.896;2023-06-26T17:16:32;12.38;;;6.78;;
33266;SDS011;19638;49.080;11.896;2023-06-26T17:20:38;8.27;;;6.55;;
33266;SDS011;19638;49.080;11.896;2023-06-26T17:24:41;7.90;;;6.78;;
33266;SDS011;19638;49.080;11.896;2023-06-26T17:28:46;8.93;;;7.10;;
33266;SDS011;19638;49.080;11.896;2023-06-26T17:32:51;10.30;;;7.20;;
33266;SDS011;19638;49.080;11.896;2023-06-26T17:36:59;9.15;;;6.75;;
33266;SDS011;19638;49.080;11.896;2023-06-26T17:41:05;10.00;;;6.97;;
33266;SDS011;19638;49.080;11.896;2023-06-26T17:45:09;7.72;;;6.82;;
33266;SDS011;19638;49.080;11.896;2023-06-26T17:49:13;9.07;;;7.30;;
33266;SDS011;19638;49.080;11.896;2023-06-26T17:53:17;10.20;;;6.63;;
33266;SDS011;19638;49.080;11.896;2023-06-26T17:57:22;11.48;;;6.90;;
33266;SDS011;19638;49.080;11.896;2023-06-26T18:01:25;8.45;;;7.10;;
33266;SDS011;19638;49.080;11.896;2023-06-26T18:05:30;11.23;;;7.15;;
33266;SDS011;19638;49.080;11.896;2023-06-26T18:09:36;10.45;;;6.55;;
33266;SDS011;19638;49.080;11.896;2023-06-26T18:13:42;8.50;;;6.70;;
33266;SDS011;19638;49.080;11.896;2023-06-26T18:17:51;8.18;;;6.07;;
33266;SDS011;19638;49.080;11.896;2023-06-26T18:21:58;9.40;;;6.60;;
33266;SDS011;19638;49.080;11.896;2023-06-26T18:26:08;12.13;;;6.88;;
33266;SDS011;19638;49.080;11.896;2023-06-26T18:30:11;10.27;;;5.53;;
33266;SDS011;19638;49.080;11.896;2023-06-26T18:34:17;8.65;;;5.50;;
33266;SDS011;19638;49.080;11.896;2023-06-26T18:38:23;10.32;;;5.25;;
33266;SDS011;19638;49.080;11.896;2023-06-26T18:42:28;6.05;;;4.72;;
33266;SDS011;19638;49.080;11.896;2023-06-26T18:46:31;8.18;;;4.97;;
33266;SDS011;19638;49.080;11.896;2023-06-26T18:50:34;9.52;;;4.30;;
33266;SDS011;19638;49.080;11.896;2023-06-26T18:54:39;11.57;;;4.15;;
33266;SDS011;19638;49.080;11.896;2023-06-26T18:58:44;8.82;;;4.78;;
33266;SDS011;19638;49.080;11.896;2023-06-26T19:02:47;5.90;;;4.30;;
33266;SDS011;19638;49.080;11.896;2023-06-26T19:06:51;5.97;;;4.03;;
33266;SDS011;19638;49.080;11.896;2023-06-26T19:10:58;6.32;;;4.40;;
33266;SDS011;19638;49.080;11.896;2023-06-26T19:15:05;6.63;;;4.20;;
33266;SDS011;19638;49.080;11.896;2023-06-26T19:19:09;7.68;;;4.93;;
33266;SDS011;19638;49.080;11.896;2023-06-26T19:23:12;8.55;;;4.57;;
33266;SDS011;19638;49.080;11.896;2023-06-26T19:27:15;7.32;;;4.72;;
33266;SDS011;19638;49.080;11.896;2023-06-26T19:31:23;8.32;;;4.88;;
33266;SDS011;19638;49.080;11.896;2023-06-26T19:35:28;6.38;;;5.18;;
33266;SDS011;19638;49.080;11.896;2023-06-26T19:39:32;8.85;;;5.40;;
33266;SDS011;19638;49.080;11.896;2023-06-26T19:43:44;9.73;;;4.70;;
33266;SDS011;19638;49.080;11.896;2023-06-26T19:47:50;10.23;;;5.10;;
33266;SDS011;19638;49.080;11.896;2023-06-26T19:51:53;7.80;;;5.68;;
33266;SDS011;19638;49.080;11.896;2023-06-26T19:56:01;7.97;;;6.30;;
33266;SDS011;19638;49.080;11.896;2023-06-26T20:00:06;8.32;;;6.25;;
33266;SDS011;19638;49.080;11.896;2023-06-26T20:04:11;9.43;;;5.95;;
33266;SDS011;19638;49.080;11.896;2023-06-26T20:08:16;17.55;;;7.32;;
33266;SDS011;19638;49.080;11.896;2023-06-26T20:12:21;10.27;;;7.03;;
33266;SDS011;19638;49.080;11.896;2023-06-26T20:16:27;10.18;;;6.88;;
33266;SDS011;19638;49.080;11.896;2023-06-26T20:20:32;13.85;;;7.32;;
33266;SDS011;19638;49.080;11.896;2023-06-26T20:24:38;10.70;;;6.78;;
33266;SDS011;19638;49.080;11.896;2023-06-26T20:28:42;10.65;;;7.00;;
33266;SDS011;19638;49.080;11.896;2023-06-26T20:32:45;9.85;;;6.47;;
33266;SDS011;19638;49.080;11.896;2023-06-26T20:36:53;13.75;;;6.90;;
33266;SDS011;19638;49.080;11.896;2023-06-26T20:41:00;10.93;;;6.93;;
33266;SDS011;19638;49.080;11.896;2023-06-26T20:45:04;12.10;;;7.32;;
33266;SDS011;19638;49.080;11.896;2023-06-26T20:49:11;14.80;;;7.70;;
33266;SDS011;19638;49.080;11.896;2023-06-26T20:53:18;13.82;;;7.25;;
33266;SDS011;19638;49.080;11.896;2023-06-26T20:57:21;15.50;;;7.38;;
33266;SDS011;19638;49.080;11.896;2023-06-26T21:01:25;9.23;;;6.60;;
33266;SDS011;19638;49.080;11.896;2023-06-26T21:05:29;16.65;;;7.05;;
33266;SDS011;19638;49.080;11.896;2023-06-26T21:09:33;11.75;;;6.93;;
33266;SDS011;19638;49.080;11.896;2023-06-26T21:13:39;10.63;;;7.03;;
33266;SDS011;19638;49.080;11.896;2023-06-26T21:17:43;11.27;;;6.95;;
33266;SDS011;19638;49.080;11.896;2023-06-26T21:21:46;13.50;;;6.03;;
33266;SDS011;19638;49.080;11.896;2023-06-26T21:25:51;14.77;;;6.18;;
33266;SDS011;19638;49.080;11.896;2023-06-26T21:29:58;7.68;;;5.55;;
33266;SDS011;19638;49.080;11.896;2023-06-26T21:34:01;7.72;;;5.32;;
33266;SDS011;19638;49.080;11.896;2023-06-26T21:38:05;14.55;;;5.47;;
33266;SDS011;19638;49.080;11.896;2023-06-26T21:42:15;9.48;;;4.95;;
33266;SDS011;19638;49.080;11.896;2023-06-26T21:46:18;10.90;;;5.03;;
33266;SDS011;19638;49.080;11.896;2023-06-26T21:50:23;9.35;;;4.88;;
33266;SDS011;19638;49.080;11.896;2023-06-26T21:54:29;7.90;;;4.13;;
33266;SDS011;19638;49.080;11.896;2023-06-26T21:58:34;7.25;;;3.88;;
33266;SDS011;19638;49.080;11.896;2023-06-26T22:02:42;7.38;;;4.15;;
33266;SDS011;19638;49.080;11.896;2023-06-26T22:06:45;12.48;;;3.97;;
33266;SDS011;19638;49.080;11.896;2023-06-26T22:10:50;9.18;;;3.92;;
33266;SDS011;19638;49.080;11.896;2023-06-26T22:14:54;7.97;;;3.65;;
33266;SDS011;19638;49.080;11.896;2023-06-26T22:18:59;9.15;;;3.20;;
33266;SDS011;19638;49.080;11.896;2023-06-26T22:23:02;5.95;;;3.53;;
33266;SDS011;19638;49.080;11.896;2023-06-26T22:27:05;6.03;;;3.28;;
33266;SDS011;19638;49.080;11.896;2023-06-26T22:31:10;7.97;;;3.42;;
33266;SDS011;19638;49.080;11.896;2023-06-26T22:35:14;6.30;;;3.13;;
33266;SDS011;19638;49.080;11.896;2023-06-26T22:43:20;10.38;;;3.08;;
33266;SDS011;19638;49.080;11.896;2023-06-26T22:47:25;4.60;;;3.10;;
33266;SDS011;19638;49.080;11.896;2023-06-26T22:51:30;5.07;;;3.28;;
33266;SDS011;19638;49.080;11.896;2023-06-26T22:55:35;5.78;;;2.67;;
33266;SDS011;19638;49.080;11.896;2023-06-26T22:59:39;8.93;;;2.92;;
33266;SDS011;19638;49.080;11.896;2023-06-26T23:03:46;8.13;;;3.15;;
33266;SDS011;19638;49.080;11.896;2023-06-26T23:07:50;6.43;;;3.45;;
33266;SDS011;19638;49.080;11.896;2023-06-26T23:11:55;5.80;;;2.60;;
33266;SDS011;19638;49.080;11.896;2023-06-26T23:15:58;6.85;;;2.70;;
33266;SDS011;19638;49.080;11.896;2023-06-26T23:20:07;3.40;;;2.58;;
33266;SDS011;19638;49.080;11.896;2023-06-26T23:24:13;6.25;;;2.88;;
33266;SDS011;19638;49.080;11.896;2023-06-26T23:28:16;6.10;;;2.72;;
33266;SDS011;19638;49.080;11.896;2023-06-26T23:32:21;9.13;;;2.88;;
33266;SDS011;19638;49.080;11.896;2023-06-26T23:36:26;14.15;;;2.70;;
33266;SDS011;19638;49.080;11.896;2023-06-26T23:40:30;6.25;;;3.00;;
33266;SDS011;19638;49.080;11.896;2023-06-26T23:44:35;4.50;;;2.70;;
33266;SDS011;19638;49.080;11.896;2023-06-26T23:48:39;5.95;;;3.00;;
33266;SDS011;19638;49.080;11.896;2023-06-26T23:52:51;4.65;;;2.55;;
33266;SDS011;19638;49.080;11.896;2023-06-26T23:57:01;4.68;;;2.97;;
